Time;durP1;ratioP1;P1;durP2;ratioP2;P2;SDS_P1;SDS_P2;PMS_P1;PMS_P2;Temp;Humidity;BMP_temperature;BMP_pressure;BME280_temperature;BME280_humidity;BME280_pressure;Samples;Min_cycle;Max_cycle;Signal;HPM_P1;HPM_P2
2023/09/11 00:00:35;;;;;;;10.27;8.02;;;22.30;76.00;;;;;;5033967;28;20033;-68
2023/09/11 00:03:02;;;;;;;13.95;8.70;;;22.30;76.20;;;;;;5033830;28;20029;-69
2023/09/11 00:05:27;;;;;;;12.48;8.65;;;22.30;76.20;;;;;;5034084;28;20026;-69
2023/09/11 00:07:53;;;;;;;10.05;8.85;;;22.20;76.70;;;;;;5033974;28;20109;-69
2023/09/11 00:10:19;;;;;;;12.82;9.05;;;22.20;77.10;;;;;;5033433;28;20104;-68
2023/09/11 00:12:44;;;;;;;11.93;9.00;;;22.20;77.10;;;;;;5016463;28;20422;-68
2023/09/11 00:15:10;;;;;;;11.82;8.48;;;22.10;77.20;;;;;;5033546;28;20059;-68
2023/09/11 00:17:36;;;;;;;9.63;7.75;;;22.10;77.60;;;;;;5034063;28;20107;-69
2023/09/11 00:20:10;;;;;;;13.85;8.10;;;22.10;77.70;;;;;;5033526;28;20064;-70
2023/09/11 00:22:36;;;;;;;10.25;7.78;;;22.10;77.50;;;;;;5033788;28;20025;-69
2023/09/11 00:25:02;;;;;;;11.18;8.05;;;22.00;77.30;;;;;;5033272;28;20034;-69
2023/09/11 00:27:27;;;;;;;12.75;8.02;;;22.00;78.00;;;;;;5033688;28;20034;-69
2023/09/11 00:29:53;;;;;;;10.20;7.70;;;22.00;77.70;;;;;;5033340;28;20041;-69
2023/09/11 00:32:19;;;;;;;12.80;8.35;;;22.00;77.30;;;;;;5032784;28;20108;-69
2023/09/11 00:34:44;;;;;;;9.02;6.57;;;21.90;77.80;;;;;;5033354;28;20071;-68
2023/09/11 00:37:10;;;;;;;9.73;7.22;;;21.90;77.80;;;;;;5033010;28;20022;-68
2023/09/11 00:39:35;;;;;;;11.38;7.40;;;21.90;78.40;;;;;;5033031;28;20029;-69
2023/09/11 00:42:01;;;;;;;11.52;7.53;;;21.90;78.70;;;;;;5033236;28;20104;-69
2023/09/11 00:44:26;;;;;;;15.40;7.82;;;21.90;78.80;;;;;;5032594;28;20478;-68
2023/09/11 00:46:53;;;;;;;13.27;7.53;;;21.90;78.80;;;;;;5033122;28;20033;-68
2023/09/11 00:49:20;;;;;;;18.60;7.60;;;21.90;78.50;;;;;;5045605;28;20115;-68
2023/09/11 00:51:46;;;;;;;10.40;7.55;;;21.80;78.50;;;;;;5053050;28;20477;-68
2023/09/11 00:54:14;;;;;;;8.50;7.05;;;21.80;79.00;;;;;;5052552;28;20040;-69
2023/09/11 00:56:39;;;;;;;16.27;7.30;;;21.80;78.90;;;;;;5054886;28;20061;-68
2023/09/11 00:59:06;;;;;;;14.00;7.05;;;21.80;79.00;;;;;;5052771;28;20458;-69
2023/09/11 01:01:32;;;;;;;11.90;6.72;;;21.80;79.30;;;;;;5052486;28;20485;-69
2023/09/11 01:03:58;;;;;;;11.38;6.93;;;21.60;80.20;;;;;;5052793;28;20029;-69
2023/09/11 01:06:24;;;;;;;21.17;7.32;;;21.60;80.20;;;;;;5052407;28;20032;-69
2023/09/11 01:08:55;;;;;;;10.40;6.90;;;21.50;80.40;;;;;;5052772;28;20528;-68
2023/09/11 01:11:21;;;;;;;15.25;6.93;;;21.50;80.30;;;;;;5052431;28;20072;-69
2023/09/11 01:13:46;;;;;;;10.00;7.05;;;21.50;80.40;;;;;;5052368;28;20033;-68
2023/09/11 01:16:35;;;;;;;11.23;7.18;;;21.50;80.50;;;;;;5052228;28;20086;-69
2023/09/11 01:19:06;;;;;;;15.40;6.97;;;21.50;80.50;;;;;;5052365;28;20055;-68
2023/09/11 01:21:53;;;;;;;14.00;7.50;;;21.40;81.20;;;;;;5052606;28;20033;-68
2023/09/11 01:24:31;;;;;;;15.23;7.28;;;21.40;81.20;;;;;;5048723;28;20557;-68
2023/09/11 01:27:08;;;;;;;14.23;7.30;;;21.30;81.50;;;;;;5052362;28;20028;-67
2023/09/11 01:29:35;;;;;;;14.95;7.15;;;21.30;82.10;;;;;;5052268;28;20044;-68
2023/09/11 01:32:02;;;;;;;13.88;8.35;;;21.30;82.40;;;;;;5052334;28;20039;-68
2023/09/11 01:34:28;;;;;;;18.45;7.20;;;21.20;82.60;;;;;;5051750;28;20096;-68
2023/09/11 01:36:53;;;;;;;10.48;7.25;;;21.20;82.50;;;;;;5051466;28;20052;-68
2023/09/11 01:39:19;;;;;;;9.88;7.35;;;21.20;83.00;;;;;;5051650;28;20029;-68
2023/09/11 01:41:46;;;;;;;9.77;7.25;;;21.20;83.00;;;;;;5052496;28;20029;-68
2023/09/11 01:44:23;;;;;;;10.60;7.68;;;21.20;83.30;;;;;;5051920;28;20036;-69
2023/09/11 01:46:51;;;;;;;10.73;7.25;;;21.10;83.60;;;;;;5052249;28;20112;-68
2023/09/11 01:49:19;;;;;;;15.68;7.78;;;21.10;83.80;;;;;;5048593;28;20056;-68
2023/09/11 01:51:46;;;;;;;13.32;7.63;;;21.00;84.20;;;;;;5052524;28;20112;-68
2023/09/11 01:54:13;;;;;;;12.75;8.10;;;21.00;84.50;;;;;;5051831;28;20111;-70
2023/09/11 01:56:39;;;;;;;9.32;6.90;;;21.00;84.40;;;;;;5052254;28;20065;-69
2023/09/11 01:59:05;;;;;;;10.60;7.32;;;20.90;84.60;;;;;;5051954;28;20040;-69
2023/09/11 02:01:31;;;;;;;11.98;7.40;;;20.90;85.00;;;;;;5033863;28;20079;-69
2023/09/11 02:03:56;;;;;;;10.10;7.65;;;20.90;85.80;;;;;;5052016;28;20029;-69
2023/09/11 02:06:22;;;;;;;12.43;7.45;;;20.80;85.10;;;;;;5051771;28;20036;-69
2023/09/11 02:08:47;;;;;;;13.82;7.75;;;20.80;85.20;;;;;;5051952;28;20032;-68
2023/09/11 02:11:13;;;;;;;10.80;7.25;;;20.80;85.40;;;;;;5051908;28;20123;-69
2023/09/11 02:13:39;;;;;;;8.15;7.15;;;20.80;85.30;;;;;;5052542;28;20036;-68
2023/09/11 02:16:05;;;;;;;15.27;7.50;;;20.80;85.30;;;;;;5052198;28;20032;-69
2023/09/11 02:18:30;;;;;;;11.80;7.00;;;20.80;85.20;;;;;;5051853;28;20111;-69
2023/09/11 02:20:56;;;;;;;10.40;7.15;;;20.70;85.50;;;;;;5051879;28;20107;-68
2023/09/11 02:23:22;;;;;;;9.80;7.45;;;20.70;85.50;;;;;;5051739;28;20036;-68
2023/09/11 02:25:48;;;;;;;9.02;6.88;;;20.70;86.00;;;;;;5052088;28;20466;-68
2023/09/11 02:28:14;;;;;;;9.43;6.68;;;20.70;85.90;;;;;;5051597;28;20103;-69
2023/09/11 02:30:40;;;;;;;10.65;6.95;;;20.70;85.90;;;;;;5052035;28;20120;-69
2023/09/11 02:33:05;;;;;;;11.13;6.97;;;20.70;85.60;;;;;;5033948;28;20100;-69
2023/09/11 02:35:31;;;;;;;9.73;6.80;;;20.70;85.70;;;;;;5051518;28;20542;-69
2023/09/11 02:37:58;;;;;;;12.15;7.45;;;20.70;85.80;;;;;;5051954;28;20029;-67
2023/09/11 02:40:23;;;;;;;9.57;7.32;;;20.70;85.40;;;;;;5051568;28;20057;-68
2023/09/11 02:42:49;;;;;;;11.98;7.90;;;20.70;85.60;;;;;;5051637;28;20060;-69
2023/09/11 02:45:15;;;;;;;16.58;7.25;;;20.70;85.50;;;;;;5051463;28;20029;-69
2023/09/11 02:47:40;;;;;;;13.55;6.82;;;20.70;85.50;;;;;;5053323;28;20044;-69
2023/09/11 02:50:07;;;;;;;12.52;7.05;;;20.70;85.60;;;;;;5055601;28;20056;-68
2023/09/11 02:52:33;;;;;;;10.52;7.35;;;20.70;85.90;;;;;;5054971;28;20036;-69
2023/09/11 02:54:59;;;;;;;11.10;7.45;;;20.60;86.30;;;;;;5055470;28;20418;-69
2023/09/11 02:57:24;;;;;;;11.95;7.57;;;20.60;86.50;;;;;;5053029;28;20481;-69
2023/09/11 02:59:54;;;;;;;13.27;8.20;;;20.60;86.40;;;;;;5035424;28;20112;-69
2023/09/11 03:02:23;;;;;;;11.23;7.63;;;20.40;87.10;;;;;;5034984;28;20378;-69
2023/09/11 03:04:52;;;;;;;11.07;7.78;;;20.40;88.00;;;;;;5017400;28;20372;-69
2023/09/11 03:07:18;;;;;;;13.07;7.72;;;20.40;88.20;;;;;;5034573;28;20359;-69
2023/09/11 03:09:46;;;;;;;10.30;7.30;;;20.40;88.30;;;;;;5035170;28;20032;-69
2023/09/11 03:12:12;;;;;;;9.73;7.07;;;20.40;88.40;;;;;;5034815;28;20043;-69
2023/09/11 03:14:39;;;;;;;12.52;7.28;;;20.40;88.30;;;;;;5034432;28;20436;-69
2023/09/11 03:17:05;;;;;;;11.75;7.53;;;20.40;88.20;;;;;;5035026;28;20116;-69
2023/09/11 03:19:35;;;;;;;10.13;7.45;;;20.40;88.20;;;;;;5034630;28;20116;-69
2023/09/11 03:22:00;;;;;;;9.85;7.43;;;20.40;88.10;;;;;;5034639;28;20021;-69
2023/09/11 03:24:26;;;;;;;9.10;6.93;;;20.40;88.20;;;;;;5034504;28;20459;-69
2023/09/11 03:26:52;;;;;;;12.88;7.55;;;20.40;88.00;;;;;;5034583;28;20048;-69
2023/09/11 03:29:17;;;;;;;9.73;6.90;;;20.40;88.20;;;;;;5034358;28;20375;-70
2023/09/11 03:31:43;;;;;;;12.38;7.35;;;20.30;88.20;;;;;;5016967;28;20037;-69
2023/09/11 03:34:09;;;;;;;10.43;7.20;;;20.30;88.20;;;;;;5036746;28;20484;-69
2023/09/11 03:36:35;;;;;;;9.73;7.15;;;20.30;88.90;;;;;;5034234;28;20099;-69
2023/09/11 03:39:01;;;;;;;10.65;8.32;;;20.30;88.70;;;;;;5034587;28;20454;-69
2023/09/11 03:41:27;;;;;;;11.75;7.68;;;20.20;88.90;;;;;;5034184;28;20022;-69
2023/09/11 03:43:52;;;;;;;10.48;7.65;;;20.20;89.10;;;;;;5034528;28;20083;-70
2023/09/11 03:46:18;;;;;;;9.63;7.43;;;20.20;89.30;;;;;;5036581;28;20114;-69
2023/09/11 03:48:44;;;;;;;8.75;7.30;;;20.20;89.80;;;;;;5034369;28;20064;-69
2023/09/11 03:51:09;;;;;;;9.30;8.05;;;20.20;89.60;;;;;;5034340;28;20033;-68
2023/09/11 03:53:42;;;;;;;9.55;7.55;;;20.20;89.70;;;;;;5033920;28;20030;-68
2023/09/11 03:56:08;;;;;;;11.65;8.07;;;20.20;90.10;;;;;;5034222;28;20057;-68
2023/09/11 03:58:34;;;;;;;11.82;8.23;;;20.20;90.20;;;;;;5032951;28;20445;-69
2023/09/11 04:01:00;;;;;;;12.18;7.75;;;20.20;90.40;;;;;;5034225;28;20097;-69
2023/09/11 04:03:26;;;;;;;10.50;8.63;;;20.20;90.30;;;;;;5033629;28;20030;-69
2023/09/11 04:05:51;;;;;;;11.93;7.85;;;20.10;90.50;;;;;;5034205;28;20036;-69
2023/09/11 04:08:17;;;;;;;10.35;8.52;;;20.10;90.70;;;;;;5033920;28;20359;-69
2023/09/11 04:10:43;;;;;;;11.20;8.43;;;20.10;90.80;;;;;;5033516;28;20036;-69
2023/09/11 04:13:09;;;;;;;12.98;8.50;;;20.10;91.00;;;;;;5034011;28;20041;-69
2023/09/11 04:15:36;;;;;;;13.60;9.05;;;20.10;90.90;;;;;;5033517;28;20389;-69
2023/09/11 04:18:01;;;;;;;10.18;8.45;;;20.10;91.10;;;;;;5033528;28;20478;-69
2023/09/11 04:20:32;;;;;;;10.57;7.90;;;20.00;91.30;;;;;;5033404;28;20057;-69
2023/09/11 04:22:59;;;;;;;9.60;8.48;;;20.00;91.50;;;;;;5033785;28;20021;-69
2023/09/11 04:25:25;;;;;;;12.80;8.27;;;20.10;91.70;;;;;;5033404;28;20025;-69
2023/09/11 04:27:51;;;;;;;10.38;9.25;;;20.10;91.60;;;;;;5033589;28;20032;-69
2023/09/11 04:30:17;;;;;;;12.10;8.68;;;20.00;91.70;;;;;;5033216;28;20063;-68
2023/09/11 04:32:43;;;;;;;18.73;8.70;;;20.00;91.70;;;;;;5033067;28;20065;-68
2023/09/11 04:35:09;;;;;;;14.07;9.10;;;20.00;91.70;;;;;;5033465;28;20033;-69
2023/09/11 04:37:36;;;;;;;13.55;9.05;;;19.90;91.80;;;;;;5033102;28;20462;-69
2023/09/11 04:40:05;;;;;;;12.77;9.52;;;20.00;92.10;;;;;;5033532;28;20029;-69
2023/09/11 04:42:30;;;;;;;11.48;8.68;;;19.90;92.20;;;;;;5032630;28;20462;-69
2023/09/11 04:44:59;;;;;;;11.57;9.02;;;19.90;92.30;;;;;;5033366;28;20117;-69
2023/09/11 04:47:31;;;;;;;11.85;9.50;;;19.90;92.40;;;;;;5015230;28;20029;-69
2023/09/11 04:49:57;;;;;;;14.52;9.43;;;19.90;92.40;;;;;;5033371;28;20037;-68
2023/09/11 04:52:23;;;;;;;11.27;9.52;;;19.90;92.30;;;;;;5032834;28;20036;-68
2023/09/11 04:54:48;;;;;;;11.07;8.98;;;19.90;92.40;;;;;;5033159;28;20030;-69
2023/09/11 04:57:14;;;;;;;10.68;9.23;;;19.90;92.30;;;;;;5033400;28;20417;-68
2023/09/11 04:59:41;;;;;;;12.00;8.98;;;19.90;92.30;;;;;;5032717;28;20057;-69
2023/09/11 05:02:08;;;;;;;11.18;8.10;;;20.00;92.50;;;;;;5034090;28;20078;-69
2023/09/11 05:04:33;;;;;;;14.65;9.32;;;20.00;92.40;;;;;;5032606;28;20417;-68
2023/09/11 05:06:59;;;;;;;13.02;8.20;;;20.00;92.30;;;;;;5032581;28;20029;-68
2023/09/11 05:09:24;;;;;;;12.95;8.80;;;20.00;92.20;;;;;;5014780;28;20029;-69
2023/09/11 05:11:50;;;;;;;13.90;8.77;;;20.00;92.20;;;;;;5032955;28;20057;-68
2023/09/11 05:14:15;;;;;;;15.02;9.20;;;20.10;92.00;;;;;;5032438;28;20025;-68
2023/09/11 05:16:41;;;;;;;11.98;8.65;;;20.10;92.20;;;;;;5032288;28;20029;-69
2023/09/11 05:19:06;;;;;;;12.98;9.68;;;20.10;92.00;;;;;;5014905;28;20112;-68
2023/09/11 05:21:32;;;;;;;13.13;9.63;;;20.10;91.90;;;;;;5031942;28;20131;-69
2023/09/11 05:23:58;;;;;;;13.98;9.30;;;20.20;91.90;;;;;;5032506;28;20095;-69
2023/09/11 05:26:23;;;;;;;17.25;10.00;;;20.20;91.80;;;;;;5032678;28;20025;-69
2023/09/11 05:28:49;;;;;;;16.23;9.77;;;20.20;91.80;;;;;;5035367;28;20021;-69
2023/09/11 05:31:15;;;;;;;19.30;10.65;;;20.30;91.70;;;;;;5052007;28;20131;-68
2023/09/11 05:33:40;;;;;;;19.50;9.65;;;20.30;91.70;;;;;;5052005;28;20060;-69
2023/09/11 05:36:06;;;;;;;14.05;10.07;;;20.30;91.70;;;;;;5052225;28;20021;-69
2023/09/11 05:38:32;;;;;;;18.30;10.88;;;20.40;92.10;;;;;;5051861;28;20033;-68
2023/09/11 05:40:57;;;;;;;18.35;11.07;;;20.40;91.50;;;;;;5052226;28;20024;-69
2023/09/11 05:43:23;;;;;;;15.40;10.55;;;20.50;91.30;;;;;;5031051;28;20009;-69
2023/09/11 05:45:49;;;;;;;15.48;10.75;;;20.50;91.40;;;;;;5051749;28;20600;-69
2023/09/11 05:48:14;;;;;;;13.77;10.05;;;20.50;91.20;;;;;;5051935;28;20029;-69
2023/09/11 05:50:40;;;;;;;15.48;10.65;;;20.50;91.50;;;;;;5051811;28;20029;-69
2023/09/11 05:53:08;;;;;;;15.68;10.13;;;20.60;91.20;;;;;;5052361;28;20175;-68
2023/09/11 05:55:34;;;;;;;14.65;10.10;;;20.60;90.80;;;;;;5033798;28;20025;-69
2023/09/11 05:58:00;;;;;;;13.63;10.70;;;20.70;90.70;;;;;;5052310;28;20469;-69
2023/09/11 06:00:26;;;;;;;12.18;10.43;;;20.70;90.70;;;;;;5052051;28;20100;-69
2023/09/11 06:02:52;;;;;;;17.60;10.23;;;20.80;90.40;;;;;;5052205;28;20186;-68
2023/09/11 06:05:19;;;;;;;16.45;10.80;;;20.80;90.20;;;;;;5052047;28;20454;-69
2023/09/11 06:07:45;;;;;;;18.08;11.60;;;20.90;90.00;;;;;;5052107;28;20036;-68
2023/09/11 06:10:12;;;;;;;13.82;10.68;;;20.90;89.90;;;;;;5052246;28;20028;-69
2023/09/11 06:12:38;;;;;;;17.10;10.48;;;20.90;89.50;;;;;;5051771;28;20363;-70
2023/09/11 06:15:05;;;;;;;15.85;10.30;;;21.00;89.30;;;;;;5052206;28;20024;-69
2023/09/11 06:17:32;;;;;;;18.17;10.57;;;21.00;89.00;;;;;;5051741;28;20029;-70
2023/09/11 06:19:58;;;;;;;16.27;10.32;;;21.10;88.10;;;;;;5051901;28;20093;-68
2023/09/11 06:22:23;;;;;;;16.65;10.50;;;21.10;88.80;;;;;;5053533;28;20033;-68
2023/09/11 06:24:49;;;;;;;16.20;11.75;;;21.10;88.60;;;;;;5055076;28;20025;-68
2023/09/11 06:27:15;;;;;;;15.02;9.98;;;21.20;88.00;;;;;;5055791;28;20358;-69
2023/09/11 06:29:41;;;;;;;13.95;10.40;;;21.20;87.70;;;;;;5055419;28;20037;-69
2023/09/11 06:32:07;;;;;;;17.95;10.40;;;21.20;87.50;;;;;;5055446;28;20033;-69
2023/09/11 06:34:33;;;;;;;18.67;11.25;;;21.30;87.80;;;;;;5055231;28;20108;-70
2023/09/11 06:36:59;;;;;;;15.75;10.27;;;21.40;87.40;;;;;;5055444;28;20051;-69
2023/09/11 06:39:25;;;;;;;15.02;10.20;;;21.50;87.10;;;;;;5055562;28;20462;-70
2023/09/11 06:41:50;;;;;;;15.50;11.07;;;21.70;86.40;;;;;;5055188;28;20378;-68
2023/09/11 06:44:16;;;;;;;12.77;9.68;;;21.90;85.60;;;;;;5055386;28;20052;-68
2023/09/11 06:46:42;;;;;;;17.15;10.05;;;22.20;83.80;;;;;;5054767;28;20025;-68
2023/09/11 06:49:08;;;;;;;15.18;10.40;;;22.50;82.90;;;;;;5055090;28;20047;-70
2023/09/11 06:51:33;;;;;;;12.65;9.45;;;22.80;80.50;;;;;;5054731;28;20037;-69
2023/09/11 06:53:59;;;;;;;13.48;9.18;;;23.10;79.90;;;;;;5055537;28;20048;-69
2023/09/11 06:56:25;;;;;;;11.68;9.60;;;23.40;78.60;;;;;;5055063;28;20059;-69
2023/09/11 06:58:50;;;;;;;15.68;9.00;;;23.70;76.50;;;;;;5055091;28;20459;-70
2023/09/11 07:01:16;;;;;;;11.75;9.80;;;24.10;75.70;;;;;;5053572;28;20537;-68
2023/09/11 07:03:41;;;;;;;15.05;9.23;;;24.60;73.30;;;;;;5054493;28;20213;-69
2023/09/11 07:06:07;;;;;;;13.32;8.95;;;25.40;70.80;;;;;;5054975;28;20417;-69
2023/09/11 07:08:33;;;;;;;16.13;8.35;;;26.30;67.40;;;;;;5054529;28;20107;-70
2023/09/11 07:10:59;;;;;;;11.20;8.25;;;27.20;64.80;;;;;;5054967;28;20036;-69
2023/09/11 07:13:25;;;;;;;10.57;8.07;;;28.00;62.20;;;;;;5054949;28;20028;-69
2023/09/11 07:15:59;;;;;;;12.30;8.13;;;28.70;59.70;;;;;;5036298;28;20033;-68
2023/09/11 07:18:25;;;;;;;13.27;7.72;;;29.30;58.20;;;;;;5054988;28;20108;-69
2023/09/11 07:20:52;;;;;;;14.68;7.57;;;30.00;55.90;;;;;;5054447;28;20112;-69
2023/09/11 07:23:23;;;;;;;13.38;7.88;;;30.50;54.30;;;;;;5054827;28;20032;-70
2023/09/11 07:25:51;;;;;;;10.80;7.43;;;30.80;52.80;;;;;;5050945;28;20025;-70
2023/09/11 07:28:16;;;;;;;13.38;7.45;;;31.40;52.00;;;;;;5054541;28;20070;-69
2023/09/11 07:30:44;;;;;;;11.60;6.80;;;32.00;51.10;;;;;;5054288;28;20382;-69
2023/09/11 07:33:10;;;;;;;15.63;6.97;;;32.50;49.90;;;;;;5053924;28;20156;-69
2023/09/11 07:35:35;;;;;;;9.23;6.75;;;32.90;49.20;;;;;;5052708;28;20108;-70
2023/09/11 07:38:01;;;;;;;14.25;7.55;;;33.30;47.80;;;;;;5052408;28;20029;-69
2023/09/11 07:40:26;;;;;;;9.02;7.07;;;33.70;46.70;;;;;;5054493;28;20075;-69
2023/09/11 07:42:54;;;;;;;13.02;7.15;;;34.30;46.10;;;;;;5054087;28;20536;-69
2023/09/11 07:45:21;;;;;;;10.82;7.63;;;34.70;44.80;;;;;;5054499;28;20079;-69
2023/09/11 07:47:46;;;;;;;9.68;7.18;;;35.20;43.80;;;;;;5054075;28;20350;-69
2023/09/11 07:50:12;;;;;;;13.95;7.00;;;35.70;42.90;;;;;;5054109;28;20079;-69
2023/09/11 07:52:38;;;;;;;11.20;7.40;;;36.00;42.40;;;;;;5053931;28;20040;-69
2023/09/11 07:55:04;;;;;;;13.38;6.80;;;36.40;41.80;;;;;;5054176;28;20067;-69
2023/09/11 07:57:33;;;;;;;11.70;7.70;;;36.80;41.10;;;;;;5054291;28;20422;-69
2023/09/11 08:00:04;;;;;;;9.50;7.07;;;37.10;40.90;;;;;;5053722;28;20074;-69
2023/09/11 08:02:30;;;;;;;11.63;7.05;;;37.20;40.00;;;;;;5054080;28;20033;-69
2023/09/11 08:04:56;;;;;;;12.57;7.85;;;37.40;39.80;;;;;;5053551;28;20040;-69
2023/09/11 08:07:21;;;;;;;12.90;7.00;;;37.10;39.50;;;;;;5053592;28;20470;-69
2023/09/11 08:09:47;;;;;;;9.75;7.35;;;37.50;39.80;;;;;;5053481;28;20036;-70
2023/09/11 08:12:13;;;;;;;10.88;6.50;;;38.10;39.10;;;;;;5053905;28;20033;-69
2023/09/11 08:14:39;;;;;;;13.32;7.30;;;38.40;38.60;;;;;;5053310;28;20029;-68
2023/09/11 08:17:04;;;;;;;13.20;7.93;;;38.70;38.00;;;;;;5053738;28;20446;-68
2023/09/11 08:19:30;;;;;;;17.90;7.03;;;38.80;38.00;;;;;;5053998;28;20036;-68
2023/09/11 08:21:55;;;;;;;9.88;7.20;;;38.90;37.60;;;;;;5053287;28;20055;-68
2023/09/11 08:24:22;;;;;;;9.98;7.25;;;38.70;37.40;;;;;;5053588;28;20021;-68
2023/09/11 08:26:48;;;;;;;12.00;7.90;;;38.40;37.90;;;;;;5052929;28;20059;-69
2023/09/11 08:29:15;;;;;;;13.25;7.65;;;38.10;38.20;;;;;;5053619;28;20065;-68
2023/09/11 08:31:41;;;;;;;14.07;8.40;;;37.60;38.30;;;;;;5052956;28;20029;-68
2023/09/11 08:34:07;;;;;;;10.07;7.22;;;37.50;38.10;;;;;;5053200;28;20021;-68
2023/09/11 08:36:32;;;;;;;11.35;7.13;;;37.30;39.20;;;;;;5053340;28;20425;-69
2023/09/11 08:38:58;;;;;;;14.80;7.47;;;36.70;40.00;;;;;;5052962;28;20044;-69
2023/09/11 08:41:25;;;;;;;12.45;8.23;;;35.90;39.80;;;;;;5053649;28;20024;-69
2023/09/11 08:43:51;;;;;;;15.90;8.15;;;35.20;40.80;;;;;;5052856;28;20047;-69
2023/09/11 08:46:17;;;;;;;11.48;8.10;;;34.30;42.10;;;;;;5052971;28;20028;-68
2023/09/11 08:48:45;;;;;;;13.23;7.97;;;34.00;43.30;;;;;;5052427;28;20072;-69
2023/09/11 08:51:20;;;;;;;14.82;8.45;;;33.90;43.90;;;;;;5035283;28;20120;-69
2023/09/11 08:53:49;;;;;;;8.88;7.40;;;33.60;44.80;;;;;;5050829;28;20021;-69
2023/09/11 08:56:15;;;;;;;10.68;7.75;;;33.60;45.40;;;;;;5052957;28;20045;-69
2023/09/11 08:58:42;;;;;;;17.50;9.07;;;33.00;44.90;;;;;;5052229;28;20094;-70
2023/09/11 09:01:08;;;;;;;11.02;8.48;;;32.40;45.60;;;;;;5053413;28;20036;-69
2023/09/11 09:03:34;;;;;;;24.52;10.38;;;32.40;46.80;;;;;;5052624;28;20466;-68
2023/09/11 09:06:02;;;;;;;22.70;11.43;;;32.50;47.50;;;;;;5052568;28;20064;-68
2023/09/11 09:08:28;;;;;;;18.13;10.40;;;32.50;46.60;;;;;;5052773;28;20043;-68
2023/09/11 09:10:54;;;;;;;19.15;9.98;;;32.40;46.40;;;;;;5052705;28;20104;-68
2023/09/11 09:13:19;;;;;;;13.95;10.23;;;32.00;46.90;;;;;;5052893;28;20048;-69
2023/09/11 09:15:45;;;;;;;23.67;10.20;;;31.70;47.80;;;;;;5048700;28;20465;-69
2023/09/11 09:18:11;;;;;;;19.35;10.10;;;31.60;47.90;;;;;;5052853;28;20056;-69
2023/09/11 09:20:38;;;;;;;17.08;10.65;;;31.60;48.10;;;;;;5035044;28;20029;-68
2023/09/11 09:23:04;;;;;;;15.88;10.88;;;31.50;48.20;;;;;;5052277;28;20044;-69
2023/09/11 09:25:30;;;;;;;18.90;10.57;;;31.40;48.00;;;;;;5052631;28;20100;-68
2023/09/11 09:27:57;;;;;;;13.63;9.70;;;31.30;48.70;;;;;;5052219;28;20029;-68
2023/09/11 09:30:29;;;;;;;28.90;12.55;;;31.40;49.40;;;;;;5052583;28;20029;-70
2023/09/11 09:32:55;;;;;;;22.83;11.07;;;31.60;48.80;;;;;;5052226;28;20470;-68
2023/09/11 09:35:25;;;;;;;17.70;10.35;;;31.40;48.40;;;;;;5052453;28;20029;-68
2023/09/11 09:37:56;;;;;;;15.43;9.52;;;31.40;48.30;;;;;;5052123;28;20028;-69
2023/09/11 09:40:32;;;;;;;15.85;10.90;;;31.30;48.50;;;;;;5049220;28;20043;-68
2023/09/11 09:43:03;;;;;;;13.10;10.02;;;31.20;48.50;;;;;;5052359;28;20111;-70
2023/09/11 09:45:35;;;;;;;14.68;10.00;;;31.20;49.00;;;;;;5052398;28;20032;-70
2023/09/11 09:48:18;;;;;;;23.70;9.85;;;31.20;49.30;;;;;;5052074;28;20470;-70
2023/09/11 09:50:53;;;;;;;20.00;9.70;;;31.10;49.40;;;;;;5051814;28;20033;-70
2023/09/11 09:53:30;;;;;;;12.95;8.10;;;31.30;49.70;;;;;;5052422;28;20032;-69
2023/09/11 09:56:03;;;;;;;16.05;8.93;;;31.30;50.70;;;;;;5051569;28;20131;-68
2023/09/11 09:58:32;;;;;;;14.20;9.27;;;31.50;50.00;;;;;;5055796;28;20033;-69
2023/09/11 10:01:03;;;;;;;16.85;10.68;;;31.70;49.20;;;;;;5055592;28;20028;-70
2023/09/11 10:03:47;;;;;;;16.75;9.63;;;31.80;49.10;;;;;;5056399;28;20074;-69
2023/09/11 10:06:20;;;;;;;19.70;10.13;;;31.80;48.10;;;;;;5038356;28;20138;-69
2023/09/11 10:08:47;;;;;;;18.27;10.60;;;31.60;48.10;;;;;;5055651;28;20036;-70
2023/09/11 10:11:30;;;;;;;18.30;9.35;;;31.50;48.70;;;;;;5056028;28;20036;-68
2023/09/11 10:14:01;;;;;;;17.25;8.57;;;31.40;48.70;;;;;;5055551;28;20533;-70
2023/09/11 10:16:28;;;;;;;17.27;9.82;;;31.30;49.20;;;;;;5038149;28;20021;-70
2023/09/11 10:18:55;;;;;;;11.20;8.60;;;31.40;49.10;;;;;;5055522;28;20029;-69
2023/09/11 10:21:21;;;;;;;13.00;8.77;;;31.50;49.40;;;;;;5055571;28;20474;-69
2023/09/11 10:23:47;;;;;;;10.27;9.13;;;31.50;49.50;;;;;;5055533;28;20029;-69
2023/09/11 10:26:48;;;;;;;10.68;9.18;;;31.80;49.60;;;;;;5055665;28;20040;-69
2023/09/11 10:29:25;;;;;;;;;;;32.00;49.20;;;;;;5055707;28;20112;-68
2023/09/11 10:32:01;;;;;;;16.65;9.07;;;32.10;48.80;;;;;;5055195;28;19924;-68
2023/09/11 10:34:27;;;;;;;14.85;8.65;;;32.20;48.30;;;;;;5055536;28;20489;-69
2023/09/11 10:36:58;;;;;;;13.68;9.15;;;32.30;48.10;;;;;;5055243;28;20017;-69
2023/09/11 10:39:24;;;;;;;15.45;8.50;;;32.40;48.20;;;;;;5055246;28;20389;-69
2023/09/11 10:41:50;;;;;;;15.10;8.95;;;32.40;47.00;;;;;;5037229;28;20072;-69
2023/09/11 10:44:16;;;;;;;12.75;8.00;;;32.40;47.90;;;;;;5055418;28;20036;-69
2023/09/11 10:46:48;;;;;;;14.50;8.20;;;32.40;48.30;;;;;;5055583;28;20143;-69
2023/09/11 10:49:24;;;;;;;15.18;8.77;;;32.60;47.80;;;;;;5055538;28;20564;-69
2023/09/11 10:51:50;;;;;;;13.35;8.70;;;32.50;46.90;;;;;;5054767;28;20497;-69
2023/09/11 10:54:20;;;;;;;12.00;8.27;;;32.40;47.00;;;;;;5055173;28;20128;-67
2023/09/11 10:56:49;;;;;;;14.57;8.93;;;32.60;47.60;;;;;;5055549;28;20064;-69
2023/09/11 10:59:16;;;;;;;9.63;8.07;;;32.50;46.80;;;;;;5053952;28;20045;-68
2023/09/11 11:01:46;;;;;;;15.15;7.72;;;32.60;47.00;;;;;;5035231;28;20041;-68
2023/09/11 11:04:15;;;;;;;8.75;7.70;;;32.70;47.10;;;;;;5034926;28;20026;-68
2023/09/11 11:06:48;;;;;;;16.00;8.63;;;32.70;46.20;;;;;;5035188;28;20438;-69
2023/09/11 11:09:24;;;;;;;10.55;7.57;;;32.50;46.00;;;;;;5034470;28;20033;-69
2023/09/11 11:11:50;;;;;;;12.55;7.28;;;32.40;45.90;;;;;;5034743;28;20080;-68
2023/09/11 11:14:18;;;;;;;10.38;8.10;;;32.40;46.70;;;;;;5034751;28;20029;-69
2023/09/11 11:17:04;;;;;;;10.77;7.60;;;32.60;46.20;;;;;;5017241;28;20025;-69
2023/09/11 11:19:32;;;;;;;17.70;8.10;;;32.70;45.80;;;;;;5034909;28;20044;-69
2023/09/11 11:22:00;;;;;;;14.38;8.15;;;32.70;46.20;;;;;;5034551;28;20036;-70
2023/09/11 11:24:30;;;;;;;11.82;8.05;;;32.80;45.70;;;;;;5036926;28;20028;-71
2023/09/11 11:26:57;;;;;;;10.70;7.77;;;32.70;44.90;;;;;;5034331;28;20026;-69
2023/09/11 11:29:26;;;;;;;9.52;7.55;;;32.70;45.10;;;;;;5034735;28;20421;-70
2023/09/11 11:31:53;;;;;;;15.50;8.50;;;32.80;45.60;;;;;;5034020;28;20091;-69
2023/09/11 11:34:31;;;;;;;16.55;8.07;;;32.80;45.20;;;;;;5034631;28;20056;-69
2023/09/11 11:36:58;;;;;;;12.55;7.97;;;32.70;45.20;;;;;;5033973;28;20474;-68
2023/09/11 11:39:28;;;;;;;8.43;7.03;;;32.40;45.80;;;;;;5034540;28;20029;-69
2023/09/11 11:41:56;;;;;;;7.93;6.47;;;32.10;46.30;;;;;;5036597;28;20022;-69
2023/09/11 11:44:24;;;;;;;9.77;7.68;;;32.20;46.80;;;;;;5034487;28;20133;-68
2023/09/11 11:46:52;;;;;;;10.15;7.45;;;32.30;46.00;;;;;;5034526;28;20029;-69
2023/09/11 11:49:19;;;;;;;9.57;7.40;;;32.30;45.80;;;;;;5034406;28;20030;-69
2023/09/11 11:51:45;;;;;;;12.73;7.40;;;32.10;45.40;;;;;;5034093;28;20381;-69
2023/09/11 11:54:24;;;;;;;11.98;7.35;;;32.20;45.50;;;;;;5034038;28;20029;-69
2023/09/11 11:56:54;;;;;;;9.20;6.88;;;32.10;45.50;;;;;;5034384;28;20420;-68
2023/09/11 11:59:20;;;;;;;12.73;6.78;;;32.10;45.80;;;;;;5034136;28;20037;-70
2023/09/11 12:01:45;;;;;;;10.05;7.10;;;32.00;45.90;;;;;;5034308;28;20029;-67
2023/09/11 12:04:11;;;;;;;10.05;6.93;;;32.20;45.70;;;;;;5033357;28;20462;-68
2023/09/11 12:06:37;;;;;;;9.88;6.55;;;32.10;45.80;;;;;;5034046;28;20021;-68
2023/09/11 12:09:03;;;;;;;11.30;7.53;;;32.20;45.80;;;;;;5033607;28;20490;-68
2023/09/11 12:11:30;;;;;;;10.68;6.35;;;32.20;45.60;;;;;;5033945;28;20029;-69
2023/09/11 12:13:56;;;;;;;16.05;6.50;;;32.10;45.30;;;;;;5033580;28;20022;-70
2023/09/11 12:16:22;;;;;;;8.98;6.68;;;32.00;45.40;;;;;;5033944;28;20494;-69
2023/09/11 12:18:48;;;;;;;10.45;6.45;;;32.00;45.20;;;;;;5034213;28;20026;-69
2023/09/11 12:21:14;;;;;;;16.92;7.70;;;32.00;45.40;;;;;;5032701;28;20079;-68
2023/09/11 12:23:39;;;;;;;14.48;7.45;;;32.00;45.60;;;;;;5033604;28;20418;-68
2023/09/11 12:26:05;;;;;;;11.07;6.93;;;32.00;46.10;;;;;;5033264;28;20025;-68
2023/09/11 12:28:32;;;;;;;9.02;6.95;;;32.00;45.50;;;;;;5033607;28;20064;-68
2023/09/11 12:30:58;;;;;;;9.98;6.38;;;32.00;45.40;;;;;;5032853;28;20475;-69
2023/09/11 12:33:25;;;;;;;7.07;6.35;;;31.90;45.50;;;;;;5033384;28;20053;-69
2023/09/11 12:35:53;;;;;;;9.90;7.35;;;31.80;45.10;;;;;;5033472;28;20022;-69
2023/09/11 12:38:19;;;;;;;9.70;7.65;;;31.60;45.30;;;;;;5033128;28;20095;-70